Time;durP1;ratioP1;P1;durP2;ratioP2;P2;SDS_P1;SDS_P2;PMS_P1;PMS_P2;Temp;Humidity;BMP_temperature;BMP_pressure;BME280_temperature;BME280_humidity;BME280_pressure;Samples;Min_cycle;Max_cycle;Signal;HPM_P1;HPM_P2
2022/08/16 00:02:22;;;;;;;12.25;5.78;;;;;;;23.68;81.38;100200.13;5061210;28;20048;-76
2022/08/16 00:04:49;;;;;;;10.80;5.30;;;;;;;23.67;81.26;100198.56;5067169;28;20060;-76
2022/08/16 00:07:17;;;;;;;11.25;5.22;;;;;;;23.67;81.43;100195.75;5064981;28;20040;-76
2022/08/16 00:09:44;;;;;;;15.65;5.85;;;;;;;23.59;81.69;100200.31;5066373;28;20049;-76
2022/08/16 00:12:11;;;;;;;9.88;5.25;;;;;;;23.56;82.03;100202.09;5065133;28;20480;-76
2022/08/16 00:14:43;;;;;;;9.98;5.38;;;;;;;23.51;82.80;100205.63;5065251;28;20055;-75
2022/08/16 00:17:10;;;;;;;12.52;5.38;;;;;;;23.43;83.76;100198.88;5063131;28;20048;-76
2022/08/16 00:19:46;;;;;;;12.43;5.38;;;;;;;23.33;84.45;100199.50;5069980;28;20474;-76
2022/08/16 00:22:14;;;;;;;11.48;5.72;;;;;;;23.28;84.55;100203.06;5067738;28;20048;-76
2022/08/16 00:24:42;;;;;;;8.93;5.20;;;;;;;23.26;84.92;100202.78;5068654;28;20052;-76
2022/08/16 00:27:12;;;;;;;10.85;5.40;;;;;;;23.26;84.90;100205.59;5067356;28;20623;-76
2022/08/16 00:29:39;;;;;;;12.80;5.82;;;;;;;23.29;84.75;100210.25;5067776;28;20090;-76
2022/08/16 00:32:06;;;;;;;13.77;5.95;;;;;;;23.28;83.86;100203.06;5063131;28;20058;-75
2022/08/16 00:34:37;;;;;;;10.98;4.97;;;;;;;23.29;83.81;100208.22;5064468;28;20049;-76
2022/08/16 00:37:19;;;;;;;13.95;5.88;;;;;;;23.33;84.21;100205.16;5065430;28;20051;-76
2022/08/16 00:39:50;;;;;;;16.25;6.22;;;;;;;23.29;83.77;100215.91;5068435;28;20040;-76
2022/08/16 00:42:23;;;;;;;11.38;5.50;;;;;;;23.21;84.07;100212.69;5056486;28;20123;-76
2022/08/16 00:45:03;;;;;;;11.63;6.65;;;;;;;23.23;84.22;100212.22;5068378;28;20091;-76
2022/08/16 00:47:35;;;;;;;14.57;6.68;;;;;;;23.19;84.31;100212.44;5061816;28;20102;-76
2022/08/16 00:50:03;;;;;;;13.75;6.28;;;;;;;23.18;84.98;100208.03;5059741;28;20125;-76
2022/08/16 00:52:36;;;;;;;11.53;6.27;;;;;;;23.16;85.42;100204.94;5060842;28;20057;-76
2022/08/16 00:55:16;;;;;;;10.88;5.75;;;;;;;23.14;85.97;100217.97;5067430;28;20047;-76
2022/08/16 00:57:44;;;;;;;9.65;5.80;;;;;;;23.14;85.90;100227.22;5059615;28;20052;-76
2022/08/16 01:00:28;;;;;;;13.90;5.68;;;;;;;23.13;86.09;100225.69;5064275;28;20076;-76
2022/08/16 01:02:58;;;;;;;15.70;6.18;;;;;;;23.09;86.38;100221.53;5065678;28;20106;-76
2022/08/16 01:05:26;;;;;;;11.70;6.00;;;;;;;23.09;86.47;100219.50;5062464;28;20056;-76
2022/08/16 01:07:53;;;;;;;15.77;6.38;;;;;;;23.01;87.23;100218.34;5064545;28;20036;-76
2022/08/16 01:10:23;;;;;;;11.60;5.80;;;;;;;22.97;87.22;100217.78;5061361;28;20049;-76
2022/08/16 01:13:08;;;;;;;14.20;6.50;;;;;;;22.98;88.19;100218.56;5065416;28;20056;-76
2022/08/16 01:15:42;;;;;;;12.32;6.05;;;;;;;22.91;88.38;100216.94;5067132;28;20401;-76
2022/08/16 01:18:13;;;;;;;10.73;5.93;;;;;;;22.89;88.61;100216.66;5064817;28;20957;-76
2022/08/16 01:21:39;;;;;;;11.77;6.00;;;;;;;22.88;89.37;100225.63;5062283;28;20044;-76
2022/08/16 01:24:34;;;;;;;14.63;6.03;;;;;;;22.88;89.49;100225.63;5063676;28;20053;-76
2022/08/16 01:27:32;;;;;;;10.60;5.07;;;;;;;22.76;90.96;100221.88;5060540;28;20149;-76
2022/08/16 01:30:14;;;;;;;11.52;6.28;;;;;;;22.83;90.42;100223.50;5064216;28;20048;-76
2022/08/16 01:32:47;;;;;;;11.30;5.47;;;;;;;22.83;90.63;100226.31;5059432;28;20127;-75
2022/08/16 01:35:55;;;;;;;10.70;5.80;;;;;;;22.81;90.21;100221.16;5060568;28;20357;-76
2022/08/16 01:38:22;;;;;;;10.63;5.90;;;;;;;22.83;90.62;100223.50;5066940;28;20063;-76
2022/08/16 01:40:56;;;;;;;11.32;5.72;;;;;;;22.79;91.38;100210.38;5064205;28;20477;-75
2022/08/16 01:43:28;;;;;;;12.55;5.43;;;;;;;22.76;91.87;100210.59;5065695;28;20055;-76
2022/08/16 01:45:59;;;;;;;13.77;6.43;;;;;;;22.67;92.32;100214.31;5066614;28;20055;-75
2022/08/16 01:48:46;;;;;;;11.55;6.50;;;;;;;22.64;93.07;100209.66;5061799;28;20052;-76
2022/08/16 01:51:17;;;;;;;10.45;5.95;;;;;;;22.57;93.67;100212.91;5065292;28;20052;-76
2022/08/16 01:53:44;;;;;;;14.15;6.68;;;;;;;22.56;94.06;100208.53;5065497;28;20051;-76
2022/08/16 01:56:22;;;;;;;12.85;5.60;;;;;;;22.55;94.37;100209.03;5068750;28;20102;-76
2022/08/16 01:58:53;;;;;;;9.73;5.28;;;;;;;22.52;94.16;100202.31;5070459;28;20083;-76
2022/08/16 02:01:20;;;;;;;14.38;6.55;;;;;;;22.48;94.72;100198.91;5069385;28;20044;-76
2022/08/16 02:03:47;;;;;;;13.18;6.07;;;;;;;22.48;95.46;100200.94;5065172;28;20392;-76
2022/08/16 02:06:17;;;;;;;14.70;6.57;;;;;;;22.49;95.47;100205.34;5070072;28;20132;-76
2022/08/16 02:09:02;;;;;;;14.38;6.72;;;;;;;22.47;95.74;100207.84;5065054;28;20041;-76
2022/08/16 02:11:31;;;;;;;12.68;6.35;;;;;;;22.41;96.65;100204.94;5063699;28;20057;-76
2022/08/16 02:14:15;;;;;;;13.77;5.90;;;;;;;22.41;97.42;100204.94;5069406;28;20728;-75
2022/08/16 02:16:44;;;;;;;13.48;6.85;;;;;;;22.42;97.01;100211.38;5068374;28;20057;-76
2022/08/16 02:19:11;;;;;;;14.23;6.32;;;;;;;22.35;97.42;100211.78;5067916;28;20040;-75
2022/08/16 02:21:46;;;;;;;12.13;5.80;;;;;;;22.35;98.09;100208.97;5067960;28;20560;-76
2022/08/16 02:24:32;;;;;;;12.90;6.30;;;;;;;22.35;98.25;100218.16;5067565;28;20060;-75
2022/08/16 02:27:06;;;;;;;15.68;6.53;;;;;;;22.31;98.00;100214.03;5069949;28;20044;-74
2022/08/16 02:29:33;;;;;;;14.38;6.72;;;;;;;22.32;97.97;100213.53;5067706;28;20044;-76
2022/08/16 02:32:00;;;;;;;15.27;6.75;;;;;;;22.31;98.28;100223.22;5069248;28;20119;-76
2022/08/16 02:34:47;;;;;;;16.17;7.85;;;;;;;22.31;98.52;100216.84;5069170;28;20048;-76
2022/08/16 02:37:16;;;;;;;11.77;6.25;;;;;;;22.30;98.66;100226.53;5067652;28;20048;-76
2022/08/16 02:39:46;;;;;;;11.32;5.72;;;;;;;22.26;99.05;100229.56;5069223;28;20122;-76
2022/08/16 02:42:20;;;;;;;14.88;6.88;;;;;;;22.30;97.67;100229.34;5066721;28;20041;-76
2022/08/16 02:44:46;;;;;;;12.77;6.20;;;;;;;22.29;98.48;100222.19;5067442;28;20123;-77
2022/08/16 02:47:15;;;;;;;12.38;6.15;;;;;;;22.28;98.64;100224.22;5067948;28;20484;-76
2022/08/16 02:49:51;;;;;;;13.60;6.10;;;;;;;22.28;99.21;100229.84;5069170;28;20052;-76
2022/08/16 02:52:38;;;;;;;15.38;6.90;;;;;;;22.25;99.04;100227.25;5065460;28;20425;-76
2022/08/16 02:55:11;;;;;;;17.10;7.22;;;;;;;22.25;98.91;100221.59;5056086;28;20078;-76
2022/08/16 02:57:41;;;;;;;14.20;6.72;;;;;;;22.20;99.88;100222.28;5064279;28;20045;-74
2022/08/16 03:00:19;;;;;;;13.45;6.57;;;;;;;22.19;100.00;100220.75;5065474;28;20057;-77
2022/08/16 03:03:01;;;;;;;13.50;6.88;;;;;;;22.17;99.42;100224.03;5063299;28;20060;-74
2022/08/16 03:05:29;;;;;;;19.60;7.07;;;;;;;22.13;100.00;100225.50;5062781;28;20099;-73
2022/08/16 03:07:57;;;;;;;13.23;6.65;;;;;;;22.08;100.00;100221.34;5067381;28;20091;-74
2022/08/16 03:10:25;;;;;;;14.43;6.07;;;;;;;22.03;100.00;100224.06;5063323;28;20048;-73
2022/08/16 03:12:59;;;;;;;13.65;6.53;;;;;;;21.96;100.00;100221.63;5062459;28;20115;-74
2022/08/16 03:15:27;;;;;;;16.50;6.28;;;;;;;21.97;100.00;100231.66;5064682;28;20050;-74
2022/08/16 03:17:54;;;;;;;15.30;7.20;;;;;;;21.97;100.00;100234.47;5061426;28;20135;-74
2022/08/16 03:20:21;;;;;;;14.85;7.15;;;;;;;21.99;100.00;100229.13;5072761;28;20080;-74
2022/08/16 03:23:00;;;;;;;16.55;7.55;;;;;;;21.99;100.00;100229.91;5064186;28;20071;-74
2022/08/16 03:25:28;;;;;;;14.30;6.88;;;;;;;22.00;100.00;100239.13;5069225;28;20519;-74
2022/08/16 03:28:09;;;;;;;14.82;7.85;;;;;;;21.98;100.00;100230.38;5066620;28;20128;-73
2022/08/16 03:30:36;;;;;;;15.40;7.57;;;;;;;21.94;100.00;100233.38;5060348;28;20135;-72
2022/08/16 03:33:04;;;;;;;16.33;6.80;;;;;;;21.88;100.00;100238.16;5067443;28;20622;-74
2022/08/16 03:35:36;;;;;;;16.83;7.43;;;;;;;21.88;100.00;100240.19;5068271;28;20495;-74
2022/08/16 03:38:08;;;;;;;13.45;6.80;;;;;;;21.85;100.00;100235.53;5062100;28;20045;-71
2022/08/16 03:40:56;;;;;;;15.50;7.25;;;;;;;21.75;100.00;100232.03;5061804;28;20525;-74
2022/08/16 03:43:23;;;;;;;16.60;7.28;;;;;;;21.71;100.00;100233.47;5064470;28;20058;-74
2022/08/16 03:46:10;;;;;;;15.90;7.57;;;;;;;21.67;100.00;100230.06;5061603;28;20056;-74
2022/08/16 03:48:38;;;;;;;15.63;7.22;;;;;;;21.69;100.00;100233.16;5067234;28;20135;-74
2022/08/16 03:51:10;;;;;;;13.77;6.95;;;;;;;21.71;100.00;100237.06;5059971;28;20122;-74
2022/08/16 03:53:39;;;;;;;14.15;6.78;;;;;;;21.75;100.00;100231.25;5059843;28;20048;-76
2022/08/16 03:56:07;;;;;;;16.33;8.20;;;;;;;21.77;100.00;100237.19;5066590;28;20048;-71
2022/08/16 03:58:48;;;;;;;17.58;7.28;;;;;;;21.75;100.00;100245.34;5056660;28;20060;-76
2022/08/16 04:01:19;;;;;;;15.95;7.78;;;;;;;21.72;100.00;100240.66;5066648;28;20056;-73
2022/08/16 04:03:46;;;;;;;14.73;7.65;;;;;;;21.60;100.00;100244.53;5063810;28;20040;-73
2022/08/16 04:06:15;;;;;;;14.27;7.50;;;;;;;21.50;100.00;100238.19;5064211;28;20056;-76
2022/08/16 04:08:43;;;;;;;16.25;7.88;;;;;;;21.50;100.00;100240.25;5067041;28;20580;-73
2022/08/16 04:11:10;;;;;;;15.25;7.20;;;;;;;21.42;100.00;100242.66;5066645;28;20051;-76
2022/08/16 04:13:42;;;;;;;15.25;7.32;;;;;;;21.37;100.00;100246.16;5062166;28;20527;-75
2022/08/16 04:16:30;;;;;;;15.55;7.50;;;;;;;21.32;100.00;100244.00;5058865;28;20056;-75
2022/08/16 04:18:56;;;;;;;14.18;6.38;;;;;;;21.25;100.00;100249.19;5070150;28;20044;-75
2022/08/16 04:21:30;;;;;;;14.13;7.03;;;;;;;21.26;100.00;100251.53;5066658;28;20049;-74
2022/08/16 04:23:58;;;;;;;15.63;7.90;;;;;;;21.26;100.00;100259.97;5062466;28;20040;-76
2022/08/16 04:26:25;;;;;;;14.30;7.13;;;;;;;21.21;100.00;100254.25;5067108;28;20132;-75
2022/08/16 04:28:57;;;;;;;15.05;6.85;;;;;;;21.25;100.00;100255.63;5064306;28;20564;-75
2022/08/16 04:31:45;;;;;;;15.05;6.80;;;;;;;21.30;100.00;100254.19;5060673;28;20052;-75
2022/08/16 04:34:23;;;;;;;13.52;7.10;;;;;;;21.29;100.00;100247.75;5059577;28;20044;-76
2022/08/16 04:36:52;;;;;;;17.20;7.78;;;;;;;21.25;100.00;100263.25;5067022;28;20045;-74
2022/08/16 04:39:18;;;;;;;13.18;6.95;;;;;;;21.27;100.00;100266.38;5062696;28;20136;-74
2022/08/16 04:41:49;;;;;;;15.77;7.18;;;;;;;21.23;100.00;100263.00;5061320;28;20098;-75
2022/08/16 04:44:23;;;;;;;13.65;6.78;;;;;;;21.22;100.00;100265.00;5065213;28;20049;-75
2022/08/16 04:47:09;;;;;;;15.00;7.05;;;;;;;21.23;100.00;100263.75;5054050;28;20049;-74
2022/08/16 04:49:49;;;;;;;14.45;7.70;;;;;;;21.25;100.00;100261.25;5053213;28;20398;-75
2022/08/16 04:52:18;;;;;;;13.48;6.80;;;;;;;21.21;100.00;100271.13;5062417;28;20493;-75
2022/08/16 04:54:59;;;;;;;17.05;6.72;;;;;;;21.15;100.00;100270.22;5057943;28;20049;-74
2022/08/16 04:57:28;;;;;;;13.68;7.07;;;;;;;21.20;100.00;100270.38;5065845;28;20048;-75
2022/08/16 04:59:56;;;;;;;14.02;6.70;;;;;;;21.23;100.00;100279.88;5064523;28;20522;-75
2022/08/16 05:02:23;;;;;;;14.10;7.85;;;;;;;21.27;100.00;100278.44;5053919;28;20045;-76
2022/08/16 05:05:10;;;;;;;18.85;7.82;;;;;;;21.33;100.00;100278.53;5062527;28;20048;-76
2022/08/16 05:07:43;;;;;;;;;;;;;;;21.35;100.00;100285.25;5067975;28;20416;-73
2022/08/16 05:10:27;;;;;;;13.55;6.80;;;;;;;21.30;100.00;100285.91;5059928;28;20010;-76
2022/08/16 05:12:55;;;;;;;11.90;6.22;;;;;;;21.29;100.00;100283.59;5066711;28;20144;-75
2022/08/16 05:15:22;;;;;;;12.63;6.20;;;;;;;21.35;100.00;100293.69;5067009;28;20148;-76
2022/08/16 05:17:50;;;;;;;14.80;7.13;;;;;;;21.40;100.00;100300.69;5065200;28;20052;-75
2022/08/16 05:20:26;;;;;;;16.17;7.72;;;;;;;21.41;100.00;100296.59;5067021;28;20044;-76
2022/08/16 05:23:10;;;;;;;15.50;8.40;;;;;;;21.44;100.00;100290.81;5064884;28;20575;-73
2022/08/16 05:25:39;;;;;;;14.57;7.28;;;;;;;21.48;100.00;100294.19;5061118;28;20056;-75
2022/08/16 05:28:13;;;;;;;18.55;6.88;;;;;;;21.48;100.00;100297.03;5061218;28;20097;-75
2022/08/16 05:30:40;;;;;;;12.68;6.95;;;;;;;21.49;100.00;100306.22;5060820;28;20505;-75
2022/08/16 05:33:09;;;;;;;17.67;6.80;;;;;;;21.53;100.00;100304.03;5063480;28;20048;-76
2022/08/16 05:35:42;;;;;;;18.10;6.90;;;;;;;21.54;100.00;100306.34;5062117;28;20529;-75
2022/08/16 05:38:12;;;;;;;14.07;7.07;;;;;;;21.61;100.00;100302.38;5063402;28;20051;-75
2022/08/16 05:41:00;;;;;;;14.48;7.00;;;;;;;21.58;100.00;100300.53;5065606;28;20048;-74
2022/08/16 05:43:28;;;;;;;14.32;6.55;;;;;;;21.62;100.00;100303.94;5062655;28;20413;-73
2022/08/16 05:45:58;;;;;;;12.43;7.13;;;;;;;21.70;100.00;100302.31;5064802;28;20052;-74
2022/08/16 05:48:25;;;;;;;16.30;7.43;;;;;;;21.76;100.00;100306.00;5061114;28;20058;-75
2022/08/16 05:50:52;;;;;;;13.23;6.70;;;;;;;21.79;100.00;100307.88;5063201;28;20059;-75
2022/08/16 05:53:19;;;;;;;14.43;6.43;;;;;;;21.80;100.00;100309.44;5059350;28;20084;-75
2022/08/16 05:55:50;;;;;;;17.60;7.63;;;;;;;21.88;100.00;100319.84;5064848;28;20052;-75
2022/08/16 05:58:17;;;;;;;13.93;6.72;;;;;;;21.91;100.00;100312.47;5067030;28;20657;-75
2022/08/16 06:00:58;;;;;;;20.52;8.20;;;;;;;21.93;100.00;100315.56;5065188;28;20084;-75
2022/08/16 06:03:25;;;;;;;15.65;7.03;;;;;;;22.13;100.00;100318.47;5064538;28;20136;-74
2022/08/16 06:05:55;;;;;;;16.63;7.28;;;;;;;22.15;100.00;100311.13;5056532;28;20058;-72
2022/08/16 06:08:26;;;;;;;14.00;7.00;;;;;;;22.13;100.00;100313.63;5062935;28;20049;-75
2022/08/16 06:11:08;;;;;;;17.98;6.38;;;;;;;22.11;100.00;100318.97;5065650;28;20143;-73
2022/08/16 06:13:39;;;;;;;18.73;6.50;;;;;;;22.19;100.00;100322.97;5060457;28;20045;-72
2022/08/16 06:16:08;;;;;;;18.45;7.82;;;;;;;22.28;100.00;100324.91;5068739;28;20566;-76
2022/08/16 06:18:44;;;;;;;14.00;6.00;;;;;;;22.35;100.00;100318.88;5071248;28;20072;-75
2022/08/16 06:21:12;;;;;;;16.17;6.65;;;;;;;22.45;100.00;100329.53;5067280;28;20045;-73
2022/08/16 06:23:48;;;;;;;15.55;7.22;;;;;;;22.53;100.00;100336.38;5061135;28;20561;-74
2022/08/16 06:26:20;;;;;;;13.20;6.38;;;;;;;22.58;99.89;100332.09;5066523;28;20147;-75
2022/08/16 06:28:47;;;;;;;14.20;7.78;;;;;;;22.70;100.00;100331.00;5064138;28;20052;-74
2022/08/16 06:31:16;;;;;;;9.57;4.90;;;;;;;22.71;98.72;100321.25;5064176;28;20554;-76
2022/08/16 06:33:50;;;;;;;8.23;3.58;;;;;;;22.75;98.11;100321.88;5059973;28;20051;-75
2022/08/16 06:36:18;;;;;;;16.48;7.10;;;;;;;22.84;97.68;100318.91;5061250;28;20052;-73
2022/08/16 06:38:47;;;;;;;5.93;2.72;;;;;;;22.86;96.28;100330.47;5067812;28;20048;-75
2022/08/16 06:41:22;;;;;;;17.85;5.85;;;;;;;22.91;96.70;100326.19;5069101;28;20048;-75
2022/08/16 06:43:53;;;;;;;14.45;6.80;;;;;;;23.11;95.55;100340.34;5067366;28;20453;-74
2022/08/16 06:46:25;;;;;;;13.77;6.05;;;;;;;23.14;95.72;100330.88;5069938;28;20053;-72
2022/08/16 06:48:58;;;;;;;6.03;3.15;;;;;;;23.16;94.98;100345.28;5069659;28;20048;-71
2022/08/16 06:51:24;;;;;;;7.85;3.42;;;;;;;23.08;95.02;100356.19;5062218;28;20052;-72
2022/08/16 06:54:11;;;;;;;14.75;6.70;;;;;;;23.26;93.83;100349.53;5064066;28;20051;-70
2022/08/16 06:56:39;;;;;;;16.48;6.50;;;;;;;23.35;93.71;100347.34;5068549;28;20143;-74
2022/08/16 06:59:07;;;;;;;5.82;2.15;;;;;;;23.34;93.46;100347.84;5068613;28;20508;-73
2022/08/16 07:01:34;;;;;;;12.27;6.55;;;;;;;23.45;93.04;100348.75;5068670;28;20052;-74
2022/08/16 07:04:17;;;;;;;16.13;6.22;;;;;;;23.50;92.87;100348.06;5067250;28;20053;-73
2022/08/16 07:06:59;;;;;;;15.38;7.18;;;;;;;23.51;92.42;100354.47;5062457;28;20044;-72
2022/08/16 07:09:25;;;;;;;15.63;7.35;;;;;;;23.56;92.21;100354.56;5066913;28;20128;-72
2022/08/16 07:11:56;;;;;;;13.30;5.93;;;;;;;23.62;91.75;100355.41;5059512;28;20049;-71
2022/08/16 07:14:31;;;;;;;15.73;6.25;;;;;;;23.49;91.72;100354.97;5067632;28;20095;-72
2022/08/16 07:16:58;;;;;;;18.15;7.13;;;;;;;23.74;91.36;100350.66;5066995;28;20070;-71
2022/08/16 07:19:27;;;;;;;15.43;7.35;;;;;;;23.69;90.95;100354.22;5069015;28;20084;-70
2022/08/16 07:22:15;;;;;;;15.32;7.47;;;;;;;23.79;90.43;100339.41;5067136;28;20051;-70
2022/08/16 07:25:04;;;;;;;16.35;7.32;;;;;;;23.94;90.07;100340.16;5063309;28;20238;-70
2022/08/16 07:27:31;;;;;;;16.27;8.30;;;;;;;23.90;89.78;100339.56;5062967;28;20194;-71
2022/08/16 07:30:06;;;;;;;15.98;6.78;;;;;;;23.88;89.91;100346.97;5075228;28;20052;-71
2022/08/16 07:32:54;;;;;;;15.95;7.03;;;;;;;23.97;89.74;100353.28;5068011;28;20509;-71
2022/08/16 07:35:21;;;;;;;14.52;7.50;;;;;;;24.11;89.13;100351.59;5068219;28;20048;-71
2022/08/16 07:37:48;;;;;;;16.42;7.93;;;;;;;24.13;88.72;100361.13;5061956;28;20151;-70
2022/08/16 07:40:15;;;;;;;14.35;7.53;;;;;;;24.19;88.11;100369.66;5068405;28;20070;-71
2022/08/16 07:42:42;;;;;;;15.75;8.43;;;;;;;24.33;88.06;100375.22;5068014;28;20056;-71
2022/08/16 07:45:11;;;;;;;16.35;8.57;;;;;;;24.47;87.70;100365.81;5068039;28;20051;-71
2022/08/16 07:47:38;;;;;;;15.27;7.38;;;;;;;24.58;86.79;100370.81;5061854;28;20140;-71
2022/08/16 07:50:08;;;;;;;19.27;7.63;;;;;;;24.61;85.05;100364.91;5063042;28;20408;-71
2022/08/16 07:52:54;;;;;;;17.45;7.75;;;;;;;24.77;84.92;100372.78;5063655;28;20049;-71
2022/08/16 07:55:25;;;;;;;19.95;8.00;;;;;;;24.80;84.17;100371.00;5069072;28;20052;-70
2022/08/16 07:57:52;;;;;;;18.67;7.18;;;;;;;24.75;83.35;100381.03;5066181;28;20049;-69
2022/08/16 08:00:29;;;;;;;18.23;6.80;;;;;;;24.90;83.03;100378.03;5070218;28;20048;-70
2022/08/16 08:02:57;;;;;;;16.95;7.72;;;;;;;24.98;82.44;100379.13;5063634;28;20052;-71
2022/08/16 08:05:24;;;;;;;20.50;8.30;;;;;;;25.05;81.85;100384.31;5065377;28;20047;-70
2022/08/16 08:08:02;;;;;;;17.98;8.38;;;;;;;25.08;81.72;100386.91;5063522;28;20135;-72
2022/08/16 08:10:38;;;;;;;8.80;3.05;;;;;;;25.13;81.17;100389.00;5062149;28;20056;-68
2022/08/16 08:13:04;;;;;;;18.15;8.95;;;;;;;25.29;80.91;100389.63;5067901;28;20058;-68
2022/08/16 08:15:34;;;;;;;15.95;7.47;;;;;;;25.25;79.65;100389.88;5067891;28;20080;-71
2022/08/16 08:18:02;;;;;;;14.60;8.65;;;;;;;25.42;79.64;100398.47;5065560;28;20056;-70
2022/08/16 08:20:49;;;;;;;16.20;8.50;;;;;;;25.52;78.99;100400.59;5061832;28;20530;-68
2022/08/16 08:23:26;;;;;;;18.08;8.30;;;;;;;25.67;78.06;100397.56;5036192;28;20052;-72
2022/08/16 08:25:53;;;;;;;11.57;4.00;;;;;;;25.69;75.96;100401.44;5040341;28;20157;-74
2022/08/16 08:28:21;;;;;;;18.50;8.80;;;;;;;25.76;76.10;100398.13;5036645;28;20158;-71
2022/08/16 08:30:48;;;;;;;16.65;8.75;;;;;;;25.85;75.84;100391.47;5033559;28;20664;-73
2022/08/16 08:33:26;;;;;;;13.65;4.57;;;;;;;25.72;74.36;100400.44;5034353;28;20053;-71
2022/08/16 08:35:59;;;;;;;16.65;7.93;;;;;;;25.83;74.37;100406.16;5038889;28;20340;-73
2022/08/16 08:38:29;;;;;;;18.98;8.95;;;;;;;26.04;73.54;100404.69;5038198;28;20052;-71
2022/08/16 08:41:12;;;;;;;11.70;5.95;;;;;;;26.20;73.35;100401.13;5033084;28;20084;-69
2022/08/16 08:43:38;;;;;;;19.27;8.55;;;;;;;26.34;72.09;100397.28;5036328;28;20055;-71
2022/08/16 08:46:08;;;;;;;17.25;8.38;;;;;;;26.46;71.46;100398.84;5038232;28;20060;-70
2022/08/16 08:48:47;;;;;;;16.10;7.68;;;;;;;26.47;70.95;100405.31;5041042;28;20522;-69
2022/08/16 08:51:26;;;;;;;12.90;7.55;;;;;;;26.58;70.64;100413.81;5035268;28;21070;-74
2022/08/16 08:54:04;;;;;;;14.68;7.82;;;;;;;26.47;68.37;100410.97;5036596;28;20059;-73
2022/08/16 08:56:36;;;;;;;17.48;7.15;;;;;;;26.50;69.99;100412.78;5034888;28;20060;-73
2022/08/16 08:59:05;;;;;;;18.10;7.82;;;;;;;26.61;70.31;100407.94;5034929;28;20060;-72
2022/08/16 09:01:46;;;;;;;12.02;3.42;;;;;;;26.53;69.18;100409.69;5034138;28;20049;-69
2022/08/16 09:04:24;;;;;;;15.93;6.80;;;;;;;26.67;69.81;100410.75;5033053;28;20045;-73
2022/08/16 09:06:52;;;;;;;19.15;7.53;;;;;;;26.76;68.49;100422.63;5032642;28;21903;-72
2022/08/16 09:09:20;;;;;;;13.82;5.72;;;;;;;26.78;68.35;100416.44;5034344;28;20488;-72
2022/08/16 09:11:47;;;;;;;14.93;7.68;;;;;;;26.92;67.52;100415.41;5032573;28;20052;-72
2022/08/16 09:14:19;;;;;;;16.17;7.30;;;;;;;26.93;67.31;100417.72;5036386;28;20059;-71
2022/08/16 09:16:50;;;;;;;15.35;7.43;;;;;;;27.00;66.76;100410.75;5033832;28;20056;-71
2022/08/16 09:19:38;;;;;;;17.73;8.07;;;;;;;27.24;66.20;100411.78;5037235;28;20850;-72
2022/08/16 09:22:07;;;;;;;22.02;8.23;;;;;;;27.45;65.13;100415.09;5032563;28;20052;-71
2022/08/16 09:24:47;;;;;;;17.83;8.18;;;;;;;27.64;62.62;100410.41;5038083;28;20048;-71
2022/08/16 09:27:20;;;;;;;17.20;8.05;;;;;;;27.64;62.28;100412.44;5034929;28;20242;-71
2022/08/16 09:29:50;;;;;;;18.70;7.55;;;;;;;27.92;61.65;100413.91;5035251;28;20204;-71
2022/08/16 09:32:29;;;;;;;16.55;8.32;;;;;;;28.10;61.72;100416.16;5038086;28;20134;-71
2022/08/16 09:34:58;;;;;;;13.65;7.00;;;;;;;28.06;60.77;100414.88;5042307;28;20044;-71
2022/08/16 09:37:29;;;;;;;15.60;7.35;;;;;;;28.02;60.19;100418.00;5039782;28;20056;-72
2022/08/16 09:40:06;;;;;;;16.38;7.60;;;;;;;28.21;59.84;100418.91;5041748;28;20083;-71
2022/08/16 09:42:54;;;;;;;6.85;2.88;;;;;;;28.05;60.06;100419.81;5041721;28;20048;-70
2022/08/16 09:45:37;;;;;;;14.52;7.45;;;;;;;28.18;58.44;100417.13;5033464;28;20056;-72
2022/08/16 09:48:06;;;;;;;8.98;4.28;;;;;;;28.17;58.17;100414.84;5040165;28;20528;-73
2022/08/16 09:50:35;;;;;;;16.88;7.13;;;;;;;28.29;58.17;100417.09;5048012;28;20144;-73
2022/08/16 09:53:09;;;;;;;15.70;7.05;;;;;;;28.37;57.49;100403.81;5034261;28;20048;-71
2022/08/16 09:55:45;;;;;;;14.55;6.90;;;;;;;28.64;57.72;100400.03;5037854;28;20110;-72
2022/08/16 09:58:15;;;;;;;18.58;7.63;;;;;;;28.65;55.74;100409.38;5047470;28;20044;-72
2022/08/16 10:01:02;;;;;;;12.98;5.82;;;;;;;28.75;54.82;100402.78;5041584;28;20190;-70
2022/08/16 10:03:28;;;;;;;15.32;7.05;;;;;;;28.90;54.17;100408.09;5046173;28;20433;-72
2022/08/16 10:05:56;;;;;;;11.18;4.85;;;;;;;28.71;53.87;100405.16;5049491;28;20053;-72
2022/08/16 10:08:23;;;;;;;11.85;5.05;;;;;;;28.77;54.35;100394.50;5048851;28;20052;-72
2022/08/16 10:13:38;;;;;;;14.13;7.78;;;;;;;28.92;53.38;100400.56;5035182;28;20053;-71
2022/08/16 10:16:07;;;;;;;13.13;6.55;;;;;;;28.93;53.27;100396.44;5034248;28;20103;-72
2022/08/16 10:18:35;;;;;;;6.50;2.50;;;;;;;29.00;52.30;100410.09;5048511;28;20052;-73
2022/08/16 10:21:22;;;;;;;15.98;6.82;;;;;;;29.29;52.09;100405.69;5047471;28;20056;-71
2022/08/16 10:23:51;;;;;;;16.63;7.72;;;;;;;29.53;50.31;100405.69;5046695;28;20048;-71
2022/08/16 10:26:23;;;;;;;15.27;7.75;;;;;;;29.22;50.38;100394.88;5044535;28;20049;-71
2022/08/16 10:29:09;;;;;;;13.57;7.30;;;;;;;29.43;50.40;100402.41;5049141;28;20048;-70
2022/08/16 10:31:36;;;;;;;14.25;6.47;;;;;;;29.68;49.77;100398.28;5042903;28;20052;-71
2022/08/16 10:34:12;;;;;;;15.15;6.60;;;;;;;29.72;47.72;100400.06;5049340;28;20062;-71
2022/08/16 10:36:58;;;;;;;11.80;5.95;;;;;;;29.84;48.15;100407.16;5053040;28;20052;-72
2022/08/16 10:39:25;;;;;;;8.30;3.80;;;;;;;29.79;46.18;100408.75;5041999;28;20056;-71
2022/08/16 10:42:06;;;;;;;15.00;6.90;;;;;;;29.99;46.61;100402.53;5036516;28;20229;-72
2022/08/16 10:44:33;;;;;;;11.88;5.90;;;;;;;30.15;45.21;100406.47;5043488;28;20469;-71
2022/08/16 10:47:00;;;;;;;4.53;3.00;;;;;;;30.27;45.24;100422.16;5047702;28;20048;-71
2022/08/16 10:49:27;;;;;;;12.32;4.95;;;;;;;30.19;42.26;100418.38;5041374;28;20165;-71
2022/08/16 10:51:55;;;;;;;13.70;5.88;;;;;;;30.30;43.62;100404.72;5043489;28;20221;-72
2022/08/16 10:54:41;;;;;;;11.65;5.18;;;;;;;30.18;43.23;100411.13;5043427;28;20055;-72
2022/08/16 10:57:26;;;;;;;10.23;5.63;;;;;;;30.40;44.10;100410.81;5044442;28;21251;-75
2022/08/16 10:59:58;;;;;;;13.23;6.10;;;;;;;30.61;43.70;100421.09;5044793;28;20910;-71
2022/08/16 11:02:26;;;;;;;14.40;6.10;;;;;;;30.77;43.05;100419.34;5039191;28;20325;-71
2022/08/16 11:05:15;;;;;;;15.05;6.93;;;;;;;30.84;42.05;100425.16;5040078;28;20056;-71
2022/08/16 11:07:45;;;;;;;12.77;4.95;;;;;;;30.77;42.36;100416.50;5039145;28;20057;-72
2022/08/16 11:10:29;;;;;;;14.32;5.85;;;;;;;30.83;42.51;100411.44;5039017;28;20305;-71
2022/08/16 11:13:19;;;;;;;14.50;6.68;;;;;;;31.00;41.90;100418.41;5034058;28;20052;-71
2022/08/16 11:16:07;;;;;;;13.02;6.10;;;;;;;31.03;41.72;100423.03;5041241;28;20045;-73
2022/08/16 11:18:55;;;;;;;18.80;6.57;;;;;;;30.94;41.99;100414.88;5047877;28;20044;-73
2022/08/16 11:21:30;;;;;;;14.35;6.03;;;;;;;31.03;41.95;100413.69;5047883;28;20139;-72
2022/08/16 11:23:57;;;;;;;13.60;5.97;;;;;;;31.17;40.82;100401.75;5039536;28;20049;-72
2022/08/16 11:26:26;;;;;;;9.27;4.00;;;;;;;30.85;40.39;100406.75;5035528;28;20045;-73
2022/08/16 11:28:55;;;;;;;10.13;4.93;;;;;;;30.79;40.98;100413.84;5033629;28;20100;-73
2022/08/16 11:31:42;;;;;;;10.45;4.78;;;;;;;30.91;39.92;100413.09;5035241;28;20131;-72
2022/08/16 11:34:19;;;;;;;18.40;5.57;;;;;;;31.04;40.57;100409.53;5036179;28;20044;-72
2022/08/16 11:36:47;;;;;;;12.40;5.80;;;;;;;31.29;40.08;100416.63;5039314;28;20045;-73
2022/08/16 11:39:26;;;;;;;11.73;5.55;;;;;;;31.30;40.48;100415.31;5037851;28;20153;-73
2022/08/16 11:41:54;;;;;;;13.57;5.40;;;;;;;31.06;40.08;100410.53;5034592;28;20071;-72
2022/08/16 11:44:21;;;;;;;14.13;4.82;;;;;;;31.32;40.51;100410.56;5035585;28;20056;-73
2022/08/16 11:47:08;;;;;;;11.52;5.10;;;;;;;31.50;40.04;100406.06;5038581;28;20053;-72
2022/08/16 11:49:34;;;;;;;13.38;5.53;;;;;;;31.86;39.46;100413.66;5038534;28;20058;-72